sensor_id;sensor_type;location;lat;lon;timestamp;P1;durP1;ratioP1;P2;durP2;ratioP2
37777;SDS011;23615;51.506;7.678;2023-04-01T00:00:03;1.00;;;0.10;;
37777;SDS011;23615;51.506;7.678;2023-04-01T00:02:29;1.35;;;0.10;;
37777;SDS011;23615;51.506;7.678;2023-04-01T00:04:54;1.00;;;0.10;;
37777;SDS011;23615;51.506;7.678;2023-04-01T00:07:20;0.70;;;0.10;;
37777;SDS011;23615;51.506;7.678;2023-04-01T00:09:45;0.10;;;0.10;;
37777;SDS011;23615;51.506;7.678;2023-04-01T00:12:10;1.60;;;0.10;;
37777;SDS011;23615;51.506;7.678;2023-04-01T00:14:36;0.37;;;0.10;;
37777;SDS011;23615;51.506;7.678;2023-04-01T00:17:02;1.77;;;0.10;;
37777;SDS011;23615;51.506;7.678;2023-04-01T00:19:27;1.27;;;0.10;;
37777;SDS011;23615;51.506;7.678;2023-04-01T00:21:53;1.20;;;0.10;;
37777;SDS011;23615;51.506;7.678;2023-04-01T00:24:18;0.90;;;0.10;;
37777;SDS011;23615;51.506;7.678;2023-04-01T00:26:44;1.77;;;0.10;;
37777;SDS011;23615;51.506;7.678;2023-04-01T00:29:09;0.40;;;0.10;;
37777;SDS011;23615;51.506;7.678;2023-04-01T00:31:34;1.47;;;0.10;;
37777;SDS011;23615;51.506;7.678;2023-04-01T00:34:00;2.53;;;0.10;;
37777;SDS011;23615;51.506;7.678;2023-04-01T00:36:25;0.97;;;0.10;;
37777;SDS011;23615;51.506;7.678;2023-04-01T00:38:50;1.43;;;0.10;;
37777;SDS011;23615;51.506;7.678;2023-04-01T00:41:17;1.08;;;0.20;;
37777;SDS011;23615;51.506;7.678;2023-04-01T00:43:44;0.35;;;0.10;;
37777;SDS011;23615;51.506;7.678;2023-04-01T00:46:11;1.43;;;0.20;;
37777;SDS011;23615;51.506;7.678;2023-04-01T00:48:53;0.82;;;0.10;;
37777;SDS011;23615;51.506;7.678;2023-04-01T00:51:21;0.60;;;0.10;;
37777;SDS011;23615;51.506;7.678;2023-04-01T00:53:51;0.77;;;0.03;;
37777;SDS011;23615;51.506;7.678;2023-04-01T00:56:19;1.10;;;0.00;;
37777;SDS011;23615;51.506;7.678;2023-04-01T00:58:52;1.95;;;0.20;;
37777;SDS011;23615;51.506;7.678;2023-04-01T01:01:24;1.30;;;0.10;;
37777;SDS011;23615;51.506;7.678;2023-04-01T01:03:50;1.60;;;0.10;;
37777;SDS011;23615;51.506;7.678;2023-04-01T01:06:19;0.43;;;0.10;;
37777;SDS011;23615;51.506;7.678;2023-04-01T01:09:10;0.43;;;0.10;;
37777;SDS011;23615;51.506;7.678;2023-04-01T01:11:43;0.40;;;0.03;;
37777;SDS011;23615;51.506;7.678;2023-04-01T01:14:19;0.70;;;0.10;;
37777;SDS011;23615;51.506;7.678;2023-04-01T01:17:23;1.73;;;0.10;;
37777;SDS011;23615;51.506;7.678;2023-04-01T01:22:49;1.45;;;0.05;;
37777;SDS011;23615;51.506;7.678;2023-04-01T01:31:44;0.40;;;0.00;;
37777;SDS011;23615;51.506;7.678;2023-04-01T01:34:40;0.20;;;0.00;;
37777;SDS011;23615;51.506;7.678;2023-04-01T01:37:18;0.25;;;0.25;;
37777;SDS011;23615;51.506;7.678;2023-04-01T01:39:51;0.57;;;0.10;;
37777;SDS011;23615;51.506;7.678;2023-04-01T01:42:20;1.30;;;0.10;;
37777;SDS011;23615;51.506;7.678;2023-04-01T01:44:50;0.30;;;0.08;;
37777;SDS011;23615;51.506;7.678;2023-04-01T01:47:18;0.30;;;0.00;;
37777;SDS011;23615;51.506;7.678;2023-04-01T01:49:45;0.30;;;0.00;;
37777;SDS011;23615;51.506;7.678;2023-04-01T01:52:11;0.50;;;0.00;;
37777;SDS011;23615;51.506;7.678;2023-04-01T01:54:46;0.98;;;0.10;;
37777;SDS011;23615;51.506;7.678;2023-04-01T01:57:16;0.40;;;0.10;;
37777;SDS011;23615;51.506;7.678;2023-04-01T01:59:44;0.30;;;0.00;;
37777;SDS011;23615;51.506;7.678;2023-04-01T02:02:11;0.13;;;0.00;;
37777;SDS011;23615;51.506;7.678;2023-04-01T02:04:38;0.80;;;0.10;;
37777;SDS011;23615;51.506;7.678;2023-04-01T02:07:09;0.10;;;0.00;;
37777;SDS011;23615;51.506;7.678;2023-04-01T02:09:40;0.17;;;0.00;;
37777;SDS011;23615;51.506;7.678;2023-04-01T02:12:06;0.57;;;0.00;;
37777;SDS011;23615;51.506;7.678;2023-04-01T02:14:39;1.92;;;0.35;;
37777;SDS011;23615;51.506;7.678;2023-04-01T02:17:11;0.60;;;0.10;;
37777;SDS011;23615;51.506;7.678;2023-04-01T02:19:43;0.22;;;0.08;;
37777;SDS011;23615;51.506;7.678;2023-04-01T02:22:16;0.20;;;0.05;;
37777;SDS011;23615;51.506;7.678;2023-04-01T02:24:45;0.20;;;0.00;;
37777;SDS011;23615;51.506;7.678;2023-04-01T02:27:11;0.32;;;0.10;;
37777;SDS011;23615;51.506;7.678;2023-04-01T02:29:37;0.40;;;0.10;;
37777;SDS011;23615;51.506;7.678;2023-04-01T02:32:03;1.08;;;0.00;;
37777;SDS011;23615;51.506;7.678;2023-04-01T02:34:30;1.17;;;0.10;;
37777;SDS011;23615;51.506;7.678;2023-04-01T02:36:56;0.03;;;0.00;;
37777;SDS011;23615;51.506;7.678;2023-04-01T02:39:22;0.40;;;0.00;;
37777;SDS011;23615;51.506;7.678;2023-04-01T02:41:47;0.80;;;0.10;;
37777;SDS011;23615;51.506;7.678;2023-04-01T02:44:13;0.20;;;0.00;;
37777;SDS011;23615;51.506;7.678;2023-04-01T02:46:40;0.40;;;0.00;;
37777;SDS011;23615;51.506;7.678;2023-04-01T02:49:05;0.70;;;0.03;;
37777;SDS011;23615;51.506;7.678;2023-04-01T02:51:31;0.20;;;0.00;;
37777;SDS011;23615;51.506;7.678;2023-04-01T02:53:57;0.70;;;0.00;;
37777;SDS011;23615;51.506;7.678;2023-04-01T02:56:22;1.70;;;0.10;;
37777;SDS011;23615;51.506;7.678;2023-04-01T02:58:48;0.20;;;0.00;;
37777;SDS011;23615;51.506;7.678;2023-04-01T03:01:13;0.60;;;0.00;;
37777;SDS011;23615;51.506;7.678;2023-04-01T03:03:39;0.40;;;0.00;;
37777;SDS011;23615;51.506;7.678;2023-04-01T03:06:05;0.77;;;0.00;;
37777;SDS011;23615;51.506;7.678;2023-04-01T03:08:35;1.30;;;0.00;;
37777;SDS011;23615;51.506;7.678;2023-04-01T03:11:00;0.53;;;0.00;;
37777;SDS011;23615;51.506;7.678;2023-04-01T03:13:25;0.30;;;0.00;;
37777;SDS011;23615;51.506;7.678;2023-04-01T03:15:51;0.23;;;0.00;;
37777;SDS011;23615;51.506;7.678;2023-04-01T03:18:17;0.10;;;0.00;;
37777;SDS011;23615;51.506;7.678;2023-04-01T03:20:42;0.30;;;0.00;;
37777;SDS011;23615;51.506;7.678;2023-04-01T03:23:08;0.30;;;0.00;;
37777;SDS011;23615;51.506;7.678;2023-04-01T03:25:33;0.03;;;0.00;;
37777;SDS011;23615;51.506;7.678;2023-04-01T03:27:58;0.10;;;0.00;;
37777;SDS011;23615;51.506;7.678;2023-04-01T03:30:24;0.00;;;0.00;;
37777;SDS011;23615;51.506;7.678;2023-04-01T03:32:50;0.28;;;0.00;;
37777;SDS011;23615;51.506;7.678;2023-04-01T03:35:16;0.10;;;0.00;;
37777;SDS011;23615;51.506;7.678;2023-04-01T03:37:41;0.00;;;0.00;;
37777;SDS011;23615;51.506;7.678;2023-04-01T03:40:06;0.00;;;0.00;;
37777;SDS011;23615;51.506;7.678;2023-04-01T03:42:32;0.00;;;0.00;;
37777;SDS011;23615;51.506;7.678;2023-04-01T03:44:57;0.40;;;0.00;;
37777;SDS011;23615;51.506;7.678;2023-04-01T03:47:23;0.00;;;0.00;;
37777;SDS011;23615;51.506;7.678;2023-04-01T03:49:48;0.40;;;0.00;;
37777;SDS011;23615;51.506;7.678;2023-04-01T03:52:13;0.30;;;0.00;;
37777;SDS011;23615;51.506;7.678;2023-04-01T03:54:38;0.40;;;0.00;;
37777;SDS011;23615;51.506;7.678;2023-04-01T03:57:04;0.30;;;0.00;;
37777;SDS011;23615;51.506;7.678;2023-04-01T03:59:30;0.20;;;0.00;;
37777;SDS011;23615;51.506;7.678;2023-04-01T04:01:55;0.17;;;0.00;;
37777;SDS011;23615;51.506;7.678;2023-04-01T04:04:21;0.50;;;0.00;;
37777;SDS011;23615;51.506;7.678;2023-04-01T04:06:46;0.10;;;0.00;;
37777;SDS011;23615;51.506;7.678;2023-04-01T04:09:11;0.00;;;0.00;;
37777;SDS011;23615;51.506;7.678;2023-04-01T04:11:37;0.80;;;0.20;;
37777;SDS011;23615;51.506;7.678;2023-04-01T04:14:02;0.37;;;0.03;;
37777;SDS011;23615;51.506;7.678;2023-04-01T04:16:27;0.50;;;0.00;;
37777;SDS011;23615;51.506;7.678;2023-04-01T04:18:52;0.60;;;0.00;;
37777;SDS011;23615;51.506;7.678;2023-04-01T04:21:18;1.20;;;0.00;;
37777;SDS011;23615;51.506;7.678;2023-04-01T04:23:43;0.30;;;0.00;;
37777;SDS011;23615;51.506;7.678;2023-04-01T04:26:10;0.20;;;0.00;;
37777;SDS011;23615;51.506;7.678;2023-04-01T04:28:37;0.95;;;0.00;;
37777;SDS011;23615;51.506;7.678;2023-04-01T04:31:03;0.50;;;0.00;;
37777;SDS011;23615;51.506;7.678;2023-04-01T04:33:32;0.30;;;0.00;;
37777;SDS011;23615;51.506;7.678;2023-04-01T04:35:58;0.20;;;0.00;;
37777;SDS011;23615;51.506;7.678;2023-04-01T04:38:25;0.10;;;0.00;;
37777;SDS011;23615;51.506;7.678;2023-04-01T04:40:51;0.20;;;0.00;;
37777;SDS011;23615;51.506;7.678;2023-04-01T04:43:17;2.23;;;0.00;;
37777;SDS011;23615;51.506;7.678;2023-04-01T04:45:43;0.40;;;0.00;;
37777;SDS011;23615;51.506;7.678;2023-04-01T04:48:10;0.40;;;0.00;;
37777;SDS011;23615;51.506;7.678;2023-04-01T04:50:38;0.10;;;0.00;;
37777;SDS011;23615;51.506;7.678;2023-04-01T04:53:05;0.00;;;0.00;;
37777;SDS011;23615;51.506;7.678;2023-04-01T04:55:30;0.30;;;0.00;;
37777;SDS011;23615;51.506;7.678;2023-04-01T04:57:55;0.47;;;0.00;;
37777;SDS011;23615;51.506;7.678;2023-04-01T05:00:21;0.20;;;0.00;;
37777;SDS011;23615;51.506;7.678;2023-04-01T05:02:46;0.30;;;0.00;;
37777;SDS011;23615;51.506;7.678;2023-04-01T05:05:11;0.10;;;0.10;;
37777;SDS011;23615;51.506;7.678;2023-04-01T05:07:36;0.40;;;0.00;;
37777;SDS011;23615;51.506;7.678;2023-04-01T05:10:02;0.00;;;0.00;;
37777;SDS011;23615;51.506;7.678;2023-04-01T05:12:28;0.77;;;0.00;;
37777;SDS011;23615;51.506;7.678;2023-04-01T05:14:53;0.10;;;0.00;;
37777;SDS011;23615;51.506;7.678;2023-04-01T05:17:19;0.00;;;0.00;;
37777;SDS011;23615;51.506;7.678;2023-04-01T05:19:44;0.60;;;0.00;;
37777;SDS011;23615;51.506;7.678;2023-04-01T05:22:09;0.20;;;0.00;;
37777;SDS011;23615;51.506;7.678;2023-04-01T05:24:35;0.32;;;0.00;;
37777;SDS011;23615;51.506;7.678;2023-04-01T05:27:00;0.10;;;0.00;;
37777;SDS011;23615;51.506;7.678;2023-04-01T05:29:26;0.00;;;0.00;;
37777;SDS011;23615;51.506;7.678;2023-04-01T05:31:51;0.00;;;0.00;;
37777;SDS011;23615;51.506;7.678;2023-04-01T05:34:17;0.10;;;0.00;;
37777;SDS011;23615;51.506;7.678;2023-04-01T05:36:43;0.40;;;0.10;;
37777;SDS011;23615;51.506;7.678;2023-04-01T05:39:08;0.10;;;0.00;;
37777;SDS011;23615;51.506;7.678;2023-04-01T05:41:37;0.10;;;0.00;;
37777;SDS011;23615;51.506;7.678;2023-04-01T05:44:03;0.20;;;0.00;;
37777;SDS011;23615;51.506;7.678;2023-04-01T05:46:29;0.10;;;0.10;;
37777;SDS011;23615;51.506;7.678;2023-04-01T05:48:55;0.30;;;0.10;;
37777;SDS011;23615;51.506;7.678;2023-04-01T05:51:20;1.33;;;0.10;;
37777;SDS011;23615;51.506;7.678;2023-04-01T05:53:45;0.17;;;0.17;;
37777;SDS011;23615;51.506;7.678;2023-04-01T05:56:11;1.30;;;0.10;;
37777;SDS011;23615;51.506;7.678;2023-04-01T05:58:37;0.10;;;0.10;;
37777;SDS011;23615;51.506;7.678;2023-04-01T06:01:03;0.20;;;0.20;;
37777;SDS011;23615;51.506;7.678;2023-04-01T06:03:30;0.50;;;0.10;;
37777;SDS011;23615;51.506;7.678;2023-04-01T06:05:55;0.10;;;0.10;;
37777;SDS011;23615;51.506;7.678;2023-04-01T06:08:21;0.20;;;0.10;;
37777;SDS011;23615;51.506;7.678;2023-04-01T06:16:40;0.20;;;0.10;;
37777;SDS011;23615;51.506;7.678;2023-04-01T06:24:58;0.15;;;0.10;;
37777;SDS011;23615;51.506;7.678;2023-04-01T06:27:37;0.20;;;0.00;;
37777;SDS011;23615;51.506;7.678;2023-04-01T06:35:46;0.10;;;0.10;;
37777;SDS011;23615;51.506;7.678;2023-04-01T06:43:52;1.50;;;0.10;;
37777;SDS011;23615;51.506;7.678;2023-04-01T06:46:31;0.10;;;0.10;;
37777;SDS011;23615;51.506;7.678;2023-04-01T06:49:41;0.10;;;0.00;;
37777;SDS011;23615;51.506;7.678;2023-04-01T06:57:49;0.03;;;0.03;;
37777;SDS011;23615;51.506;7.678;2023-04-01T07:00:31;0.80;;;0.10;;
37777;SDS011;23615;51.506;7.678;2023-04-01T07:03:08;0.00;;;0.00;;
37777;SDS011;23615;51.506;7.678;2023-04-01T07:05:45;0.10;;;0.10;;
37777;SDS011;23615;51.506;7.678;2023-04-01T07:08:21;0.10;;;0.10;;
37777;SDS011;23615;51.506;7.678;2023-04-01T07:10:54;0.10;;;0.10;;
37777;SDS011;23615;51.506;7.678;2023-04-01T07:13:32;0.13;;;0.10;;
37777;SDS011;23615;51.506;7.678;2023-04-01T07:16:12;0.37;;;0.10;;
37777;SDS011;23615;51.506;7.678;2023-04-01T07:19:01;0.10;;;0.00;;
37777;SDS011;23615;51.506;7.678;2023-04-01T07:21:47;0.00;;;0.00;;
37777;SDS011;23615;51.506;7.678;2023-04-01T07:24:24;0.40;;;0.00;;
37777;SDS011;23615;51.506;7.678;2023-04-01T07:26:55;0.00;;;0.00;;
37777;SDS011;23615;51.506;7.678;2023-04-01T07:29:22;0.00;;;0.00;;
37777;SDS011;23615;51.506;7.678;2023-04-01T07:37:11;0.00;;;0.00;;
37777;SDS011;23615;51.506;7.678;2023-04-01T07:39:45;0.20;;;0.00;;
37777;SDS011;23615;51.506;7.678;2023-04-01T07:42:21;0.10;;;0.00;;
37777;SDS011;23615;51.506;7.678;2023-04-01T07:44:54;0.60;;;0.00;;
37777;SDS011;23615;51.506;7.678;2023-04-01T07:50:32;0.10;;;0.10;;
37777;SDS011;23615;51.506;7.678;2023-04-01T07:55:57;0.35;;;0.10;;
37777;SDS011;23615;51.506;7.678;2023-04-01T08:06:56;0.20;;;0.00;;
37777;SDS011;23615;51.506;7.678;2023-04-01T08:15:00;0.00;;;0.00;;
37777;SDS011;23615;51.506;7.678;2023-04-01T08:20:25;0.10;;;0.10;;
37777;SDS011;23615;51.506;7.678;2023-04-01T08:23:12;0.10;;;0.10;;
37777;SDS011;23615;51.506;7.678;2023-04-01T08:25:55;0.10;;;0.10;;
37777;SDS011;23615;51.506;7.678;2023-04-01T08:28:39;0.10;;;0.05;;
37777;SDS011;23615;51.506;7.678;2023-04-01T08:31:13;0.10;;;0.03;;
37777;SDS011;23615;51.506;7.678;2023-04-01T08:33:47;0.50;;;0.10;;
37777;SDS011;23615;51.506;7.678;2023-04-01T08:36:15;0.40;;;0.10;;
37777;SDS011;23615;51.506;7.678;2023-04-01T08:47:16;0.17;;;0.10;;
37777;SDS011;23615;51.506;7.678;2023-04-01T08:53:00;0.50;;;0.10;;
37777;SDS011;23615;51.506;7.678;2023-04-01T08:55:46;0.10;;;0.10;;
37777;SDS011;23615;51.506;7.678;2023-04-01T09:01:26;0.10;;;0.10;;
37777;SDS011;23615;51.506;7.678;2023-04-01T09:06:50;0.77;;;0.10;;
37777;SDS011;23615;51.506;7.678;2023-04-01T09:09:33;0.30;;;0.10;;
37777;SDS011;23615;51.506;7.678;2023-04-01T09:15:42;0.10;;;0.10;;
37777;SDS011;23615;51.506;7.678;2023-04-01T09:18:24;0.20;;;0.20;;
37777;SDS011;23615;51.506;7.678;2023-04-01T09:32:04;0.20;;;0.10;;
37777;SDS011;23615;51.506;7.678;2023-04-01T09:34:54;0.50;;;0.20;;
37777;SDS011;23615;51.506;7.678;2023-04-01T09:40:17;0.10;;;0.10;;
37777;SDS011;23615;51.506;7.678;2023-04-01T09:43:06;0.30;;;0.10;;
37777;SDS011;23615;51.506;7.678;2023-04-01T09:45:48;0.20;;;0.10;;
37777;SDS011;23615;51.506;7.678;2023-04-01T09:51:30;0.70;;;0.20;;
37777;SDS011;23615;51.506;7.678;2023-04-01T09:54:07;0.60;;;0.30;;
37777;SDS011;23615;51.506;7.678;2023-04-01T09:59:40;0.20;;;0.20;;
37777;SDS011;23615;51.506;7.678;2023-04-01T10:05:11;0.40;;;0.20;;
37777;SDS011;23615;51.506;7.678;2023-04-01T10:24:55;0.55;;;0.40;;
37777;SDS011;23615;51.506;7.678;2023-04-01T10:30:41;1.27;;;0.50;;
37777;SDS011;23615;51.506;7.678;2023-04-01T11:01:49;0.97;;;0.93;;
37777;SDS011;23615;51.506;7.678;2023-04-01T11:21:28;1.85;;;1.70;;
37777;SDS011;23615;51.506;7.678;2023-04-01T11:27:02;2.03;;;1.92;;
37777;SDS011;23615;51.506;7.678;2023-04-01T11:32:42;2.00;;;1.80;;
37777;SDS011;23615;51.506;7.678;2023-04-01T11:43:57;1.33;;;1.23;;
37777;SDS011;23615;51.506;7.678;2023-04-01T11:52:22;1.80;;;0.75;;
37777;SDS011;23615;51.506;7.678;2023-04-01T11:54:56;1.20;;;1.10;;
37777;SDS011;23615;51.506;7.678;2023-04-01T11:57:42;1.40;;;0.90;;
37777;SDS011;23615;51.506;7.678;2023-04-01T12:03:13;1.10;;;0.90;;
37777;SDS011;23615;51.506;7.678;2023-04-01T12:14:27;0.90;;;0.90;;
37777;SDS011;23615;51.506;7.678;2023-04-01T12:17:02;1.00;;;0.60;;
37777;SDS011;23615;51.506;7.678;2023-04-01T12:33:41;0.50;;;0.50;;
37777;SDS011;23615;51.506;7.678;2023-04-01T12:47:36;0.57;;;0.55;;
37777;SDS011;23615;51.506;7.678;2023-04-01T12:56:06;0.75;;;0.55;;
37777;SDS011;23615;51.506;7.678;2023-04-01T13:01:22;0.45;;;0.40;;
37777;SDS011;23615;51.506;7.678;2023-04-01T13:07:15;0.40;;;0.40;;
37777;SDS011;23615;51.506;7.678;2023-04-01T13:17:57;0.63;;;0.55;;
37777;SDS011;23615;51.506;7.678;2023-04-01T13:20:44;0.50;;;0.30;;
37777;SDS011;23615;51.506;7.678;2023-04-01T13:23:33;0.57;;;0.35;;
37777;SDS011;23615;51.506;7.678;2023-04-01T13:35:03;1.50;;;1.10;;
37777;SDS011;23615;51.506;7.678;2023-04-01T13:37:52;1.00;;;1.00;;
37777;SDS011;23615;51.506;7.678;2023-04-01T13:40:30;1.27;;;1.10;;
37777;SDS011;23615;51.506;7.678;2023-04-01T13:45:57;1.60;;;1.10;;
37777;SDS011;23615;51.506;7.678;2023-04-01T13:48:39;1.55;;;1.45;;
37777;SDS011;23615;51.506;7.678;2023-04-01T13:57:22;1.02;;;1.00;;
37777;SDS011;23615;51.506;7.678;2023-04-01T14:03:03;1.13;;;1.02;;
37777;SDS011;23615;51.506;7.678;2023-04-01T14:06:02;1.40;;;1.30;;
37777;SDS011;23615;51.506;7.678;2023-04-01T14:33:31;2.80;;;2.60;;
37777;SDS011;23615;51.506;7.678;2023-04-01T14:42:08;1.65;;;1.55;;
37777;SDS011;23615;51.506;7.678;2023-04-01T14:45:02;2.93;;;2.53;;
37777;SDS011;23615;51.506;7.678;2023-04-01T14:50:49;1.15;;;1.00;;
37777;SDS011;23615;51.506;7.678;2023-04-01T14:55:48;1.20;;;1.00;;
37777;SDS011;23615;51.506;7.678;2023-04-01T14:58:16;1.10;;;1.10;;
37777;SDS011;23615;51.506;7.678;2023-04-01T15:03:22;1.20;;;1.10;;
37777;SDS011;23615;51.506;7.678;2023-04-01T15:09:06;1.33;;;1.00;;
37777;SDS011;23615;51.506;7.678;2023-04-01T15:12:16;0.47;;;0.45;;
37777;SDS011;23615;51.506;7.678;2023-04-01T15:17:58;0.73;;;0.73;;
37777;SDS011;23615;51.506;7.678;2023-04-01T15:20:48;0.75;;;0.75;;
37777;SDS011;23615;51.506;7.678;2023-04-01T15:29:16;1.15;;;1.05;;
37777;SDS011;23615;51.506;7.678;2023-04-01T15:31:59;1.05;;;0.88;;
37777;SDS011;23615;51.506;7.678;2023-04-01T15:39:59;0.70;;;0.70;;
37777;SDS011;23615;51.506;7.678;2023-04-01T15:42:41;1.30;;;1.13;;
37777;SDS011;23615;51.506;7.678;2023-04-01T15:47:55;1.08;;;0.98;;
37777;SDS011;23615;51.506;7.678;2023-04-01T15:50:46;1.25;;;1.00;;
37777;SDS011;23615;51.506;7.678;2023-04-01T16:01:57;2.08;;;1.98;;
37777;SDS011;23615;51.506;7.678;2023-04-01T16:04:29;2.70;;;2.50;;
37777;SDS011;23615;51.506;7.678;2023-04-01T16:12:50;4.43;;;4.00;;
37777;SDS011;23615;51.506;7.678;2023-04-01T16:15:34;3.60;;;3.30;;
37777;SDS011;23615;51.506;7.678;2023-04-01T16:24:02;4.85;;;4.45;;
37777;SDS011;23615;51.506;7.678;2023-04-01T16:32:34;4.60;;;4.20;;
37777;SDS011;23615;51.506;7.678;2023-04-01T16:38:13;5.65;;;5.15;;
37777;SDS011;23615;51.506;7.678;2023-04-01T16:40:47;5.88;;;5.38;;
37777;SDS011;23615;51.506;7.678;2023-04-01T16:43:25;6.20;;;5.70;;
37777;SDS011;23615;51.506;7.678;2023-04-01T16:48:50;6.40;;;5.78;;
37777;SDS011;23615;51.506;7.678;2023-04-01T16:51:17;7.15;;;6.47;;
37777;SDS011;23615;51.506;7.678;2023-04-01T16:54:04;6.45;;;5.80;;
37777;SDS011;23615;51.506;7.678;2023-04-01T16:56:54;6.17;;;5.57;;
37777;SDS011;23615;51.506;7.678;2023-04-01T16:59:29;6.35;;;5.75;;
37777;SDS011;23615;51.506;7.678;2023-04-01T17:04:45;5.65;;;5.22;;
37777;SDS011;23615;51.506;7.678;2023-04-01T17:15:17;5.67;;;5.17;;
37777;SDS011;23615;51.506;7.678;2023-04-01T17:17:54;18.02;;;16.27;;
37777;SDS011;23615;51.506;7.678;2023-04-01T17:20:29;6.40;;;5.80;;
37777;SDS011;23615;51.506;7.678;2023-04-01T17:30:35;3.17;;;2.90;;
37777;SDS011;23615;51.506;7.678;2023-04-01T17:39:03;4.40;;;3.72;;
37777;SDS011;23615;51.506;7.678;2023-04-01T17:49:51;3.10;;;2.80;;
37777;SDS011;23615;51.506;7.678;2023-04-01T17:52:42;2.83;;;2.63;;
37777;SDS011;23615;51.506;7.678;2023-04-01T18:00:59;3.03;;;2.70;;
37777;SDS011;23615;51.506;7.678;2023-04-01T18:03:54;2.72;;;2.53;;
37777;SDS011;23615;51.506;7.678;2023-04-01T18:09:23;3.15;;;2.95;;
37777;SDS011;23615;51.506;7.678;2023-04-01T18:15:27;3.30;;;2.97;;
37777;SDS011;23615;51.506;7.678;2023-04-01T18:20:32;5.53;;;4.40;;
37777;SDS011;23615;51.506;7.678;2023-04-01T18:23:27;3.70;;;3.13;;
37777;SDS011;23615;51.506;7.678;2023-04-01T18:26:02;2.27;;;2.07;;
37777;SDS011;23615;51.506;7.678;2023-04-01T18:28:35;4.68;;;3.90;;
37777;SDS011;23615;51.506;7.678;2023-04-01T18:36:24;4.00;;;3.20;;
37777;SDS011;23615;51.506;7.678;2023-04-01T18:41:34;5.43;;;4.47;;
37777;SDS011;23615;51.506;7.678;2023-04-01T18:47:08;7.43;;;5.00;;
37777;SDS011;23615;51.506;7.678;2023-04-01T18:52:34;3.60;;;3.30;;
37777;SDS011;23615;51.506;7.678;2023-04-01T19:00:19;3.47;;;3.28;;
37777;SDS011;23615;51.506;7.678;2023-04-01T19:05:29;3.80;;;3.50;;
37777;SDS011;23615;51.506;7.678;2023-04-01T19:16:43;4.22;;;3.90;;
37777;SDS011;23615;51.506;7.678;2023-04-01T19:22:35;4.57;;;4.27;;
37777;SDS011;23615;51.506;7.678;2023-04-01T19:28:00;3.60;;;3.30;;
37777;SDS011;23615;51.506;7.678;2023-04-01T19:30:32;4.47;;;4.07;;
37777;SDS011;23615;51.506;7.678;2023-04-01T19:33:10;5.97;;;5.37;;
37777;SDS011;23615;51.506;7.678;2023-04-01T19:35:49;4.00;;;3.70;;
37777;SDS011;23615;51.506;7.678;2023-04-01T19:41:01;3.93;;;3.63;;
37777;SDS011;23615;51.506;7.678;2023-04-01T19:43:46;4.15;;;3.85;;
37777;SDS011;23615;51.506;7.678;2023-04-01T19:52:01;4.03;;;3.73;;
37777;SDS011;23615;51.506;7.678;2023-04-01T19:57:30;3.92;;;3.63;;
37777;SDS011;23615;51.506;7.678;2023-04-01T20:00:22;3.70;;;3.40;;
37777;SDS011;23615;51.506;7.678;2023-04-01T20:03:39;3.00;;;2.80;;
37777;SDS011;23615;51.506;7.678;2023-04-01T20:08:17;3.55;;;3.33;;
37777;SDS011;23615;51.506;7.678;2023-04-01T20:10:59;3.50;;;3.30;;
37777;SDS011;23615;51.506;7.678;2023-04-01T20:13:35;4.38;;;4.00;;
37777;SDS011;23615;51.506;7.678;2023-04-01T20:16:08;4.05;;;3.75;;
37777;SDS011;23615;51.506;7.678;2023-04-01T20:26:39;3.67;;;3.38;;
37777;SDS011;23615;51.506;7.678;2023-04-01T20:29:12;3.45;;;3.25;;
37777;SDS011;23615;51.506;7.678;2023-04-01T20:31:57;2.97;;;2.78;;
37777;SDS011;23615;51.506;7.678;2023-04-01T20:37:48;4.53;;;4.18;;
37777;SDS011;23615;51.506;7.678;2023-04-01T20:40:27;4.32;;;4.03;;
37777;SDS011;23615;51.506;7.678;2023-04-01T20:43:10;5.03;;;4.63;;
37777;SDS011;23615;51.506;7.678;2023-04-01T20:48:40;4.20;;;3.90;;
37777;SDS011;23615;51.506;7.678;2023-04-01T20:51:26;3.25;;;2.95;;
37777;SDS011;23615;51.506;7.678;2023-04-01T20:56:49;1.77;;;1.13;;
37777;SDS011;23615;51.506;7.678;2023-04-01T21:08:16;0.60;;;0.60;;
37777;SDS011;23615;51.506;7.678;2023-04-01T21:11:04;0.70;;;0.70;;
37777;SDS011;23615;51.506;7.678;2023-04-01T21:16:39;0.70;;;0.70;;
37777;SDS011;23615;51.506;7.678;2023-04-01T21:30:12;0.73;;;0.73;;
37777;SDS011;23615;51.506;7.678;2023-04-01T21:32:59;0.70;;;0.70;;
37777;SDS011;23615;51.506;7.678;2023-04-01T21:36:14;0.50;;;0.50;;
37777;SDS011;23615;51.506;7.678;2023-04-01T21:38:41;0.60;;;0.60;;
37777;SDS011;23615;51.506;7.678;2023-04-01T21:41:32;0.50;;;0.50;;
37777;SDS011;23615;51.506;7.678;2023-04-01T22:03:44;0.40;;;0.40;;
37777;SDS011;23615;51.506;7.678;2023-04-01T22:06:38;0.50;;;0.50;;
37777;SDS011;23615;51.506;7.678;2023-04-01T22:17:31;0.50;;;0.50;;
37777;SDS011;23615;51.506;7.678;2023-04-01T22:20:18;0.50;;;0.50;;
37777;SDS011;23615;51.506;7.678;2023-04-01T22:22:52;0.47;;;0.47;;
37777;SDS011;23615;51.506;7.678;2023-04-01T22:28:04;0.87;;;0.70;;
37777;SDS011;23615;51.506;7.678;2023-04-01T22:30:33;0.60;;;0.60;;
37777;SDS011;23615;51.506;7.678;2023-04-01T22:33:09;0.60;;;0.60;;
37777;SDS011;23615;51.506;7.678;2023-04-01T22:35:44;0.90;;;0.77;;
37777;SDS011;23615;51.506;7.678;2023-04-01T22:41:12;0.60;;;0.60;;
37777;SDS011;23615;51.506;7.678;2023-04-01T22:43:39;0.70;;;0.68;;
37777;SDS011;23615;51.506;7.678;2023-04-01T22:54:30;0.50;;;0.50;;
37777;SDS011;23615;51.506;7.678;2023-04-01T22:57:00;0.50;;;0.50;;
37777;SDS011;23615;51.506;7.678;2023-04-01T22:59:40;0.60;;;0.60;;
37777;SDS011;23615;51.506;7.678;2023-04-01T23:02:11;0.60;;;0.60;;
37777;SDS011;23615;51.506;7.678;2023-04-01T23:04:43;0.70;;;0.70;;
37777;SDS011;23615;51.506;7.678;2023-04-01T23:10:00;0.70;;;0.60;;
37777;SDS011;23615;51.506;7.678;2023-04-01T23:12:27;0.60;;;0.60;;
37777;SDS011;23615;51.506;7.678;2023-04-01T23:14:55;0.70;;;0.70;;
37777;SDS011;23615;51.506;7.678;2023-04-01T23:17:42;0.70;;;0.70;;
37777;SDS011;23615;51.506;7.678;2023-04-01T23:26:02;0.68;;;0.68;;
37777;SDS011;23615;51.506;7.678;2023-04-01T23:31:25;0.82;;;0.82;;
37777;SDS011;23615;51.506;7.678;2023-04-01T23:33:53;0.68;;;0.68;;
37777;SDS011;23615;51.506;7.678;2023-04-01T23:36:20;0.65;;;0.65;;
37777;SDS011;23615;51.506;7.678;2023-04-01T23:38:47;0.70;;;0.70;;
37777;SDS011;23615;51.506;7.678;2023-04-01T23:41:19;0.90;;;0.90;;
37777;SDS011;23615;51.506;7.678;2023-04-01T23:44:08;0.75;;;0.75;;
37777;SDS011;23615;51.506;7.678;2023-04-01T23:46:37;0.68;;;0.68;;
37777;SDS011;23615;51.506;7.678;2023-04-01T23:49:05;0.65;;;0.65;;
37777;SDS011;23615;51.506;7.678;2023-04-01T23:51:39;0.80;;;0.80;;
37777;SDS011;23615;51.506;7.678;2023-04-01T23:54:18;0.70;;;0.70;;
37777;SDS011;23615;51.506;7.678;2023-04-01T23:57:04;1.00;;;0.82;;
37777;SDS011;23615;51.506;7.678;2023-04-01T23:59:36;0.90;;;0.90;;
